sensor_id;sensor_type;location;lat;lon;timestamp;temperature;humidity
65034;DHT22;51601;51.356;12.458;2023-04-15T00:02:53;7.90;99.90
65034;DHT22;51601;51.356;12.458;2023-04-15T00:07:17;7.90;99.90
65034;DHT22;51601;51.356;12.458;2023-04-15T00:11:41;7.90;99.90
65034;DHT22;51601;51.356;12.458;2023-04-15T00:16:06;7.90;99.90
65034;DHT22;51601;51.356;12.458;2023-04-15T00:20:31;7.80;99.90
65034;DHT22;51601;51.356;12.458;2023-04-15T00:24:56;7.80;99.90
65034;DHT22;51601;51.356;12.458;2023-04-15T00:29:19;7.80;99.90
65034;DHT22;51601;51.356;12.458;2023-04-15T00:33:43;7.80;99.90
65034;DHT22;51601;51.356;12.458;2023-04-15T00:38:09;7.80;99.90
65034;DHT22;51601;51.356;12.458;2023-04-15T00:42:34;7.80;99.90
65034;DHT22;51601;51.356;12.458;2023-04-15T00:46:59;7.70;99.90
65034;DHT22;51601;51.356;12.458;2023-04-15T00:51:24;7.70;99.90
65034;DHT22;51601;51.356;12.458;2023-04-15T00:55:49;7.70;99.90
65034;DHT22;51601;51.356;12.458;2023-04-15T01:00:15;7.60;99.90
65034;DHT22;51601;51.356;12.458;2023-04-15T01:04:40;7.60;99.90
65034;DHT22;51601;51.356;12.458;2023-04-15T01:09:09;7.60;99.90
65034;DHT22;51601;51.356;12.458;2023-04-15T01:13:35;7.60;99.90
65034;DHT22;51601;51.356;12.458;2023-04-15T01:18:02;7.60;99.90
65034;DHT22;51601;51.356;12.458;2023-04-15T01:22:31;7.60;99.90
65034;DHT22;51601;51.356;12.458;2023-04-15T01:26:57;7.60;99.90
65034;DHT22;51601;51.356;12.458;2023-04-15T01:31:23;7.60;99.90
65034;DHT22;51601;51.356;12.458;2023-04-15T01:35:52;7.60;99.90
65034;DHT22;51601;51.356;12.458;2023-04-15T01:40:22;7.50;99.90
65034;DHT22;51601;51.356;12.458;2023-04-15T01:44:49;7.50;99.90
65034;DHT22;51601;51.356;12.458;2023-04-15T01:49:16;7.50;99.90
65034;DHT22;51601;51.356;12.458;2023-04-15T01:53:40;7.50;99.90
65034;DHT22;51601;51.356;12.458;2023-04-15T01:58:04;7.50;99.90
65034;DHT22;51601;51.356;12.458;2023-04-15T02:02:30;7.50;99.90
65034;DHT22;51601;51.356;12.458;2023-04-15T02:06:58;7.50;99.90
65034;DHT22;51601;51.356;12.458;2023-04-15T02:11:23;7.40;99.90
65034;DHT22;51601;51.356;12.458;2023-04-15T02:15:47;7.40;99.90
65034;DHT22;51601;51.356;12.458;2023-04-15T02:20:19;7.40;99.90
65034;DHT22;51601;51.356;12.458;2023-04-15T02:24:47;7.40;99.90
65034;DHT22;51601;51.356;12.458;2023-04-15T02:29:13;7.40;99.90
65034;DHT22;51601;51.356;12.458;2023-04-15T02:33:40;7.40;99.90
65034;DHT22;51601;51.356;12.458;2023-04-15T02:38:05;7.40;99.90
65034;DHT22;51601;51.356;12.458;2023-04-15T02:42:33;7.40;99.90
65034;DHT22;51601;51.356;12.458;2023-04-15T02:46:58;7.30;99.90
65034;DHT22;51601;51.356;12.458;2023-04-15T02:51:22;7.40;99.90
65034;DHT22;51601;51.356;12.458;2023-04-15T02:55:47;7.30;99.90
65034;DHT22;51601;51.356;12.458;2023-04-15T03:00:20;7.40;99.90
65034;DHT22;51601;51.356;12.458;2023-04-15T03:04:47;7.40;99.90
65034;DHT22;51601;51.356;12.458;2023-04-15T03:09:11;7.30;99.90
65034;DHT22;51601;51.356;12.458;2023-04-15T03:13:39;7.30;99.90
65034;DHT22;51601;51.356;12.458;2023-04-15T03:18:20;7.40;99.90
65034;DHT22;51601;51.356;12.458;2023-04-15T03:22:44;7.30;99.90
65034;DHT22;51601;51.356;12.458;2023-04-15T03:27:10;7.30;99.90
65034;DHT22;51601;51.356;12.458;2023-04-15T03:31:39;7.40;99.90
65034;DHT22;51601;51.356;12.458;2023-04-15T03:36:03;7.40;99.90
65034;DHT22;51601;51.356;12.458;2023-04-15T03:40:34;7.40;99.90
65034;DHT22;51601;51.356;12.458;2023-04-15T03:44:58;7.40;99.90
65034;DHT22;51601;51.356;12.458;2023-04-15T03:49:26;7.40;99.90
65034;DHT22;51601;51.356;12.458;2023-04-15T03:53:50;7.40;99.90
65034;DHT22;51601;51.356;12.458;2023-04-15T03:58:31;7.40;99.90
65034;DHT22;51601;51.356;12.458;2023-04-15T04:02:55;7.40;99.90
65034;DHT22;51601;51.356;12.458;2023-04-15T04:07:25;7.30;99.90
65034;DHT22;51601;51.356;12.458;2023-04-15T04:11:50;7.30;99.90
65034;DHT22;51601;51.356;12.458;2023-04-15T04:16:15;7.30;99.90
65034;DHT22;51601;51.356;12.458;2023-04-15T04:20:39;7.30;99.90
65034;DHT22;51601;51.356;12.458;2023-04-15T04:25:10;7.30;99.90
65034;DHT22;51601;51.356;12.458;2023-04-15T04:29:36;7.30;99.90
65034;DHT22;51601;51.356;12.458;2023-04-15T04:34:06;7.30;99.90
65034;DHT22;51601;51.356;12.458;2023-04-15T04:38:35;7.30;99.90
65034;DHT22;51601;51.356;12.458;2023-04-15T04:43:04;7.30;99.90
65034;DHT22;51601;51.356;12.458;2023-04-15T04:47:28;7.30;99.90
65034;DHT22;51601;51.356;12.458;2023-04-15T04:51:52;7.30;99.90
65034;DHT22;51601;51.356;12.458;2023-04-15T04:56:16;7.30;99.90
65034;DHT22;51601;51.356;12.458;2023-04-15T05:00:42;7.30;99.90
65034;DHT22;51601;51.356;12.458;2023-04-15T05:05:06;7.30;99.90
65034;DHT22;51601;51.356;12.458;2023-04-15T05:09:30;7.30;99.90
65034;DHT22;51601;51.356;12.458;2023-04-15T05:13:57;7.30;99.90
65034;DHT22;51601;51.356;12.458;2023-04-15T05:18:24;7.30;99.90
65034;DHT22;51601;51.356;12.458;2023-04-15T05:22:48;7.30;99.90
65034;DHT22;51601;51.356;12.458;2023-04-15T05:27:12;7.30;99.90
65034;DHT22;51601;51.356;12.458;2023-04-15T05:31:36;7.40;99.90
65034;DHT22;51601;51.356;12.458;2023-04-15T05:36:02;7.40;99.90
65034;DHT22;51601;51.356;12.458;2023-04-15T05:40:26;7.40;99.90
65034;DHT22;51601;51.356;12.458;2023-04-15T05:44:50;7.40;99.90
65034;DHT22;51601;51.356;12.458;2023-04-15T05:49:14;7.50;99.90
65034;DHT22;51601;51.356;12.458;2023-04-15T05:53:39;7.40;99.90
65034;DHT22;51601;51.356;12.458;2023-04-15T05:58:03;7.50;99.90
65034;DHT22;51601;51.356;12.458;2023-04-15T06:02:27;7.50;99.90
65034;DHT22;51601;51.356;12.458;2023-04-15T06:06:52;7.50;99.90
65034;DHT22;51601;51.356;12.458;2023-04-15T06:11:19;7.50;99.90
65034;DHT22;51601;51.356;12.458;2023-04-15T06:15:43;7.50;99.90
65034;DHT22;51601;51.356;12.458;2023-04-15T06:20:11;7.60;99.90
65034;DHT22;51601;51.356;12.458;2023-04-15T06:24:36;7.60;99.90
65034;DHT22;51601;51.356;12.458;2023-04-15T06:29:01;7.70;99.90
65034;DHT22;51601;51.356;12.458;2023-04-15T06:33:33;7.70;99.90
65034;DHT22;51601;51.356;12.458;2023-04-15T06:37:57;7.70;99.90
65034;DHT22;51601;51.356;12.458;2023-04-15T06:42:24;7.70;99.90
65034;DHT22;51601;51.356;12.458;2023-04-15T06:46:49;7.80;99.90
65034;DHT22;51601;51.356;12.458;2023-04-15T06:51:13;7.80;99.90
65034;DHT22;51601;51.356;12.458;2023-04-15T06:55:37;7.80;99.90
65034;DHT22;51601;51.356;12.458;2023-04-15T07:00:02;7.80;99.90
65034;DHT22;51601;51.356;12.458;2023-04-15T07:04:28;7.80;99.90
65034;DHT22;51601;51.356;12.458;2023-04-15T07:08:53;7.80;99.90
65034;DHT22;51601;51.356;12.458;2023-04-15T07:13:17;7.90;99.90
65034;DHT22;51601;51.356;12.458;2023-04-15T07:17:41;7.90;99.90
65034;DHT22;51601;51.356;12.458;2023-04-15T07:22:06;7.90;99.90
65034;DHT22;51601;51.356;12.458;2023-04-15T07:26:30;7.90;99.90
65034;DHT22;51601;51.356;12.458;2023-04-15T07:30:54;8.00;99.90
65034;DHT22;51601;51.356;12.458;2023-04-15T07:35:18;8.00;99.90
65034;DHT22;51601;51.356;12.458;2023-04-15T07:39:44;8.00;99.90
65034;DHT22;51601;51.356;12.458;2023-04-15T07:44:08;8.00;99.90
65034;DHT22;51601;51.356;12.458;2023-04-15T07:48:32;8.10;99.90
65034;DHT22;51601;51.356;12.458;2023-04-15T07:52:58;8.10;99.90
65034;DHT22;51601;51.356;12.458;2023-04-15T07:57:24;8.20;99.90
65034;DHT22;51601;51.356;12.458;2023-04-15T08:01:47;8.20;99.90
65034;DHT22;51601;51.356;12.458;2023-04-15T08:06:12;8.20;99.90
65034;DHT22;51601;51.356;12.458;2023-04-15T08:10:36;8.20;99.90
65034;DHT22;51601;51.356;12.458;2023-04-15T08:15:02;8.30;99.90
65034;DHT22;51601;51.356;12.458;2023-04-15T08:19:26;8.40;99.90
65034;DHT22;51601;51.356;12.458;2023-04-15T08:23:51;8.50;99.90
65034;DHT22;51601;51.356;12.458;2023-04-15T08:28:15;8.50;99.90
65034;DHT22;51601;51.356;12.458;2023-04-15T08:32:42;8.60;99.90
65034;DHT22;51601;51.356;12.458;2023-04-15T08:37:08;8.70;99.90
65034;DHT22;51601;51.356;12.458;2023-04-15T08:41:40;8.70;99.90
65034;DHT22;51601;51.356;12.458;2023-04-15T08:46:08;8.70;99.90
65034;DHT22;51601;51.356;12.458;2023-04-15T08:50:34;8.70;99.90
65034;DHT22;51601;51.356;12.458;2023-04-15T08:54:59;8.70;99.90
65034;DHT22;51601;51.356;12.458;2023-04-15T08:59:26;8.70;99.90
65034;DHT22;51601;51.356;12.458;2023-04-15T09:03:51;8.70;99.90
65034;DHT22;51601;51.356;12.458;2023-04-15T09:08:17;8.80;99.90
65034;DHT22;51601;51.356;12.458;2023-04-15T09:12:42;8.90;99.90
65034;DHT22;51601;51.356;12.458;2023-04-15T09:17:09;8.90;99.90
65034;DHT22;51601;51.356;12.458;2023-04-15T09:21:34;9.00;99.90
65034;DHT22;51601;51.356;12.458;2023-04-15T09:26:00;9.10;99.90
65034;DHT22;51601;51.356;12.458;2023-04-15T09:30:24;9.10;99.90
65034;DHT22;51601;51.356;12.458;2023-04-15T09:34:50;9.20;99.90
65034;DHT22;51601;51.356;12.458;2023-04-15T09:39:14;9.20;99.90
65034;DHT22;51601;51.356;12.458;2023-04-15T09:43:40;9.20;99.90
65034;DHT22;51601;51.356;12.458;2023-04-15T09:48:18;9.30;99.90
65034;DHT22;51601;51.356;12.458;2023-04-15T09:52:43;9.30;99.90
65034;DHT22;51601;51.356;12.458;2023-04-15T09:57:08;9.40;99.90
65034;DHT22;51601;51.356;12.458;2023-04-15T10:01:29;9.40;99.90
65034;DHT22;51601;51.356;12.458;2023-04-15T10:05:54;9.40;99.90
65034;DHT22;51601;51.356;12.458;2023-04-15T10:10:19;9.50;99.90
65034;DHT22;51601;51.356;12.458;2023-04-15T10:14:43;9.50;99.90
65034;DHT22;51601;51.356;12.458;2023-04-15T10:19:09;9.50;99.90
65034;DHT22;51601;51.356;12.458;2023-04-15T10:23:33;9.60;99.90
65034;DHT22;51601;51.356;12.458;2023-04-15T10:27:57;9.70;99.90
65034;DHT22;51601;51.356;12.458;2023-04-15T10:32:23;9.70;99.90
65034;DHT22;51601;51.356;12.458;2023-04-15T10:36:49;9.70;99.90
65034;DHT22;51601;51.356;12.458;2023-04-15T10:41:16;9.80;99.90
65034;DHT22;51601;51.356;12.458;2023-04-15T10:45:44;9.80;99.90
65034;DHT22;51601;51.356;12.458;2023-04-15T10:50:08;9.90;99.90
65034;DHT22;51601;51.356;12.458;2023-04-15T10:54:33;9.90;99.90
65034;DHT22;51601;51.356;12.458;2023-04-15T10:59:00;9.90;99.90
65034;DHT22;51601;51.356;12.458;2023-04-15T11:03:36;10.00;99.90
65034;DHT22;51601;51.356;12.458;2023-04-15T11:08:00;10.00;99.90
65034;DHT22;51601;51.356;12.458;2023-04-15T11:12:33;10.10;99.90
65034;DHT22;51601;51.356;12.458;2023-04-15T11:16:57;10.10;99.90
65034;DHT22;51601;51.356;12.458;2023-04-15T11:21:24;10.10;99.90
65034;DHT22;51601;51.356;12.458;2023-04-15T11:25:53;10.20;99.90
65034;DHT22;51601;51.356;12.458;2023-04-15T11:30:31;10.10;99.90
65034;DHT22;51601;51.356;12.458;2023-04-15T11:34:58;10.10;99.90
65034;DHT22;51601;51.356;12.458;2023-04-15T11:39:23;10.10;99.90
65034;DHT22;51601;51.356;12.458;2023-04-15T11:43:47;10.10;99.90
65034;DHT22;51601;51.356;12.458;2023-04-15T11:48:13;10.10;99.90
65034;DHT22;51601;51.356;12.458;2023-04-15T11:52:51;10.00;99.90
65034;DHT22;51601;51.356;12.458;2023-04-15T11:57:16;10.00;99.90
65034;DHT22;51601;51.356;12.458;2023-04-15T12:01:42;10.00;99.90
65034;DHT22;51601;51.356;12.458;2023-04-15T12:06:16;10.10;99.90
65034;DHT22;51601;51.356;12.458;2023-04-15T12:10:43;10.10;99.90
65034;DHT22;51601;51.356;12.458;2023-04-15T12:15:10;10.10;99.90
65034;DHT22;51601;51.356;12.458;2023-04-15T12:19:39;10.10;99.90
65034;DHT22;51601;51.356;12.458;2023-04-15T12:24:08;10.10;99.90
65034;DHT22;51601;51.356;12.458;2023-04-15T12:28:35;10.10;99.90
65034;DHT22;51601;51.356;12.458;2023-04-15T12:32:59;10.20;99.90
65034;DHT22;51601;51.356;12.458;2023-04-15T12:37:35;10.20;99.90
65034;DHT22;51601;51.356;12.458;2023-04-15T12:42:00;10.30;99.90
65034;DHT22;51601;51.356;12.458;2023-04-15T12:46:27;10.30;99.90
65034;DHT22;51601;51.356;12.458;2023-04-15T12:50:51;10.40;99.90
65034;DHT22;51601;51.356;12.458;2023-04-15T12:55:17;10.50;99.90
65034;DHT22;51601;51.356;12.458;2023-04-15T12:59:43;10.50;99.90
65034;DHT22;51601;51.356;12.458;2023-04-15T13:04:07;10.60;99.90
65034;DHT22;51601;51.356;12.458;2023-04-15T13:08:38;10.50;99.90
65034;DHT22;51601;51.356;12.458;2023-04-15T13:13:16;10.50;99.90
65034;DHT22;51601;51.356;12.458;2023-04-15T13:17:42;10.50;99.90
65034;DHT22;51601;51.356;12.458;2023-04-15T13:22:07;10.60;99.90
65034;DHT22;51601;51.356;12.458;2023-04-15T13:26:34;10.60;99.90
65034;DHT22;51601;51.356;12.458;2023-04-15T13:31:02;10.60;99.90
65034;DHT22;51601;51.356;12.458;2023-04-15T13:35:27;10.60;99.90
65034;DHT22;51601;51.356;12.458;2023-04-15T13:39:53;10.60;99.90
65034;DHT22;51601;51.356;12.458;2023-04-15T13:44:23;10.70;99.90
65034;DHT22;51601;51.356;12.458;2023-04-15T13:48:48;10.70;99.90
65034;DHT22;51601;51.356;12.458;2023-04-15T13:53:13;10.80;99.90
65034;DHT22;51601;51.356;12.458;2023-04-15T13:57:39;10.80;99.90
65034;DHT22;51601;51.356;12.458;2023-04-15T14:02:08;10.80;99.90
65034;DHT22;51601;51.356;12.458;2023-04-15T14:06:35;10.80;99.90
65034;DHT22;51601;51.356;12.458;2023-04-15T14:11:07;10.80;99.90
65034;DHT22;51601;51.356;12.458;2023-04-15T14:15:34;10.80;99.90
65034;DHT22;51601;51.356;12.458;2023-04-15T14:20:14;10.70;99.90
65034;DHT22;51601;51.356;12.458;2023-04-15T14:24:42;10.70;99.90
65034;DHT22;51601;51.356;12.458;2023-04-15T14:29:21;10.60;99.90
65034;DHT22;51601;51.356;12.458;2023-04-15T14:33:48;10.60;99.90
65034;DHT22;51601;51.356;12.458;2023-04-15T14:38:20;10.70;99.90
65034;DHT22;51601;51.356;12.458;2023-04-15T14:42:45;10.70;99.90
65034;DHT22;51601;51.356;12.458;2023-04-15T14:47:12;10.70;99.90
65034;DHT22;51601;51.356;12.458;2023-04-15T14:51:40;10.80;99.90
65034;DHT22;51601;51.356;12.458;2023-04-15T14:56:05;10.90;99.90
65034;DHT22;51601;51.356;12.458;2023-04-15T15:00:31;11.00;99.90
65034;DHT22;51601;51.356;12.458;2023-04-15T15:04:57;11.10;99.90
65034;DHT22;51601;51.356;12.458;2023-04-15T15:09:28;11.00;99.90
65034;DHT22;51601;51.356;12.458;2023-04-15T15:13:56;11.10;99.90
65034;DHT22;51601;51.356;12.458;2023-04-15T15:18:23;11.00;99.90
65034;DHT22;51601;51.356;12.458;2023-04-15T15:22:55;11.10;99.90
65034;DHT22;51601;51.356;12.458;2023-04-15T15:27:25;11.10;99.90
65034;DHT22;51601;51.356;12.458;2023-04-15T15:31:49;11.10;99.90
65034;DHT22;51601;51.356;12.458;2023-04-15T15:36:08;11.10;99.90
65034;DHT22;51601;51.356;12.458;2023-04-15T15:40:34;11.10;99.90
65034;DHT22;51601;51.356;12.458;2023-04-15T15:45:02;11.10;99.90
65034;DHT22;51601;51.356;12.458;2023-04-15T15:49:27;11.20;99.90
65034;DHT22;51601;51.356;12.458;2023-04-15T15:53:51;11.20;99.90
65034;DHT22;51601;51.356;12.458;2023-04-15T15:58:16;11.30;99.90
65034;DHT22;51601;51.356;12.458;2023-04-15T16:02:41;11.30;99.90
65034;DHT22;51601;51.356;12.458;2023-04-15T16:07:09;11.30;99.90
65034;DHT22;51601;51.356;12.458;2023-04-15T16:11:33;11.30;99.90
65034;DHT22;51601;51.356;12.458;2023-04-15T16:15:58;11.30;99.90
65034;DHT22;51601;51.356;12.458;2023-04-15T16:20:30;11.30;99.90
65034;DHT22;51601;51.356;12.458;2023-04-15T16:24:54;11.20;99.90
65034;DHT22;51601;51.356;12.458;2023-04-15T16:29:22;11.20;99.90
65034;DHT22;51601;51.356;12.458;2023-04-15T16:33:51;11.20;99.90
65034;DHT22;51601;51.356;12.458;2023-04-15T16:38:21;11.20;99.90
65034;DHT22;51601;51.356;12.458;2023-04-15T16:42:41;11.30;99.90
65034;DHT22;51601;51.356;12.458;2023-04-15T16:47:05;11.30;99.90
65034;DHT22;51601;51.356;12.458;2023-04-15T16:51:32;11.30;99.90
65034;DHT22;51601;51.356;12.458;2023-04-15T16:55:56;11.30;99.90
65034;DHT22;51601;51.356;12.458;2023-04-15T17:00:20;11.20;99.90
65034;DHT22;51601;51.356;12.458;2023-04-15T17:04:44;11.20;99.90
65034;DHT22;51601;51.356;12.458;2023-04-15T17:09:10;11.10;99.90
65034;DHT22;51601;51.356;12.458;2023-04-15T17:13:34;11.10;99.90
65034;DHT22;51601;51.356;12.458;2023-04-15T17:17:58;11.00;99.90
65034;DHT22;51601;51.356;12.458;2023-04-15T17:22:26;11.00;99.90
65034;DHT22;51601;51.356;12.458;2023-04-15T17:26:52;11.00;99.90
65034;DHT22;51601;51.356;12.458;2023-04-15T17:31:16;10.90;99.90
65034;DHT22;51601;51.356;12.458;2023-04-15T17:35:40;10.90;99.90
65034;DHT22;51601;51.356;12.458;2023-04-15T17:40:05;10.90;99.90
65034;DHT22;51601;51.356;12.458;2023-04-15T17:44:36;10.80;99.90
65034;DHT22;51601;51.356;12.458;2023-04-15T17:49:10;10.80;99.90
65034;DHT22;51601;51.356;12.458;2023-04-15T17:53:44;10.80;99.90
65034;DHT22;51601;51.356;12.458;2023-04-15T17:58:08;10.70;99.90
65034;DHT22;51601;51.356;12.458;2023-04-15T18:02:37;10.70;99.90
65034;DHT22;51601;51.356;12.458;2023-04-15T18:07:03;10.60;99.90
65034;DHT22;51601;51.356;12.458;2023-04-15T18:11:27;10.60;99.90
65034;DHT22;51601;51.356;12.458;2023-04-15T18:15:52;10.50;99.90
65034;DHT22;51601;51.356;12.458;2023-04-15T18:20:21;10.50;99.90
65034;DHT22;51601;51.356;12.458;2023-04-15T18:24:46;10.40;99.90
65034;DHT22;51601;51.356;12.458;2023-04-15T18:29:13;10.40;99.90
65034;DHT22;51601;51.356;12.458;2023-04-15T18:33:45;10.40;99.90
65034;DHT22;51601;51.356;12.458;2023-04-15T18:38:09;10.30;99.90
65034;DHT22;51601;51.356;12.458;2023-04-15T18:42:42;10.30;99.90
65034;DHT22;51601;51.356;12.458;2023-04-15T18:47:09;10.20;99.90
65034;DHT22;51601;51.356;12.458;2023-04-15T18:51:36;10.20;99.90
65034;DHT22;51601;51.356;12.458;2023-04-15T18:56:05;10.20;99.90
65034;DHT22;51601;51.356;12.458;2023-04-15T19:00:33;10.20;99.90
65034;DHT22;51601;51.356;12.458;2023-04-15T19:05:10;10.20;99.90
65034;DHT22;51601;51.356;12.458;2023-04-15T19:09:36;10.20;99.90
65034;DHT22;51601;51.356;12.458;2023-04-15T19:14:05;10.10;99.90
65034;DHT22;51601;51.356;12.458;2023-04-15T19:18:35;10.10;99.90
65034;DHT22;51601;51.356;12.458;2023-04-15T19:23:02;10.10;99.90
65034;DHT22;51601;51.356;12.458;2023-04-15T19:27:27;10.10;99.90
65034;DHT22;51601;51.356;12.458;2023-04-15T19:31:47;10.10;99.90
65034;DHT22;51601;51.356;12.458;2023-04-15T19:36:11;10.10;99.90
65034;DHT22;51601;51.356;12.458;2023-04-15T19:40:35;10.10;99.90
65034;DHT22;51601;51.356;12.458;2023-04-15T19:44:59;10.10;99.90
65034;DHT22;51601;51.356;12.458;2023-04-15T19:49:28;10.10;99.90
65034;DHT22;51601;51.356;12.458;2023-04-15T19:53:52;10.10;99.90
65034;DHT22;51601;51.356;12.458;2023-04-15T19:58:18;10.10;99.90
65034;DHT22;51601;51.356;12.458;2023-04-15T20:02:42;10.10;99.90
65034;DHT22;51601;51.356;12.458;2023-04-15T20:07:08;10.20;99.90
65034;DHT22;51601;51.356;12.458;2023-04-15T20:11:32;10.20;99.90
65034;DHT22;51601;51.356;12.458;2023-04-15T20:16:16;10.20;99.90
65034;DHT22;51601;51.356;12.458;2023-04-15T20:20:40;10.10;99.90
65034;DHT22;51601;51.356;12.458;2023-04-15T20:25:06;10.10;99.90
65034;DHT22;51601;51.356;12.458;2023-04-15T20:29:30;10.10;99.90
65034;DHT22;51601;51.356;12.458;2023-04-15T20:33:54;10.20;99.90
65034;DHT22;51601;51.356;12.458;2023-04-15T20:38:18;10.10;99.90
65034;DHT22;51601;51.356;12.458;2023-04-15T20:42:44;10.10;99.90
65034;DHT22;51601;51.356;12.458;2023-04-15T20:47:08;10.10;99.90
65034;DHT22;51601;51.356;12.458;2023-04-15T20:51:32;10.10;99.90
65034;DHT22;51601;51.356;12.458;2023-04-15T20:55:59;10.20;99.90
65034;DHT22;51601;51.356;12.458;2023-04-15T21:00:24;10.10;99.90
65034;DHT22;51601;51.356;12.458;2023-04-15T21:04:48;10.20;99.90
65034;DHT22;51601;51.356;12.458;2023-04-15T21:09:12;10.20;99.90
65034;DHT22;51601;51.356;12.458;2023-04-15T21:13:36;10.20;99.90
65034;DHT22;51601;51.356;12.458;2023-04-15T21:18:02;10.10;99.90
65034;DHT22;51601;51.356;12.458;2023-04-15T21:22:26;10.10;99.90
65034;DHT22;51601;51.356;12.458;2023-04-15T21:26:51;10.10;99.90
65034;DHT22;51601;51.356;12.458;2023-04-15T21:31:15;10.10;99.90
65034;DHT22;51601;51.356;12.458;2023-04-15T21:35:40;10.10;99.90
65034;DHT22;51601;51.356;12.458;2023-04-15T21:40:05;10.10;99.90
65034;DHT22;51601;51.356;12.458;2023-04-15T21:44:30;10.00;99.90
65034;DHT22;51601;51.356;12.458;2023-04-15T21:48:54;10.10;99.90
65034;DHT22;51601;51.356;12.458;2023-04-15T21:53:19;10.00;99.90
65034;DHT22;51601;51.356;12.458;2023-04-15T21:57:43;10.00;99.90
65034;DHT22;51601;51.356;12.458;2023-04-15T22:02:07;10.00;99.90
65034;DHT22;51601;51.356;12.458;2023-04-15T22:06:31;10.00;99.90
65034;DHT22;51601;51.356;12.458;2023-04-15T22:10:57;9.90;99.90
65034;DHT22;51601;51.356;12.458;2023-04-15T22:15:21;10.00;99.90
65034;DHT22;51601;51.356;12.458;2023-04-15T22:19:45;9.90;99.90
65034;DHT22;51601;51.356;12.458;2023-04-15T22:24:08;9.90;99.90
65034;DHT22;51601;51.356;12.458;2023-04-15T22:28:54;9.80;99.90
65034;DHT22;51601;51.356;12.458;2023-04-15T22:33:17;9.80;99.90
65034;DHT22;51601;51.356;12.458;2023-04-15T22:37:42;9.80;99.90
65034;DHT22;51601;51.356;12.458;2023-04-15T22:42:06;9.80;99.90
65034;DHT22;51601;51.356;12.458;2023-04-15T22:46:31;9.80;99.90
65034;DHT22;51601;51.356;12.458;2023-04-15T22:50:55;9.90;99.90
65034;DHT22;51601;51.356;12.458;2023-04-15T22:55:19;9.80;99.90
65034;DHT22;51601;51.356;12.458;2023-04-15T22:59:43;9.80;99.90
65034;DHT22;51601;51.356;12.458;2023-04-15T23:04:08;9.90;99.90
65034;DHT22;51601;51.356;12.458;2023-04-15T23:08:49;9.80;99.90
65034;DHT22;51601;51.356;12.458;2023-04-15T23:13:13;9.80;99.90
65034;DHT22;51601;51.356;12.458;2023-04-15T23:17:37;9.70;99.90
65034;DHT22;51601;51.356;12.458;2023-04-15T23:22:03;9.70;99.90
65034;DHT22;51601;51.356;12.458;2023-04-15T23:26:28;9.60;99.90
65034;DHT22;51601;51.356;12.458;2023-04-15T23:30:52;9.60;99.90
65034;DHT22;51601;51.356;12.458;2023-04-15T23:35:17;9.60;99.90
65034;DHT22;51601;51.356;12.458;2023-04-15T23:39:42;9.60;99.90
65034;DHT22;51601;51.356;12.458;2023-04-15T23:44:06;9.70;99.90
65034;DHT22;51601;51.356;12.458;2023-04-15T23:48:31;9.70;99.90
65034;DHT22;51601;51.356;12.458;2023-04-15T23:52:55;9.70;99.90
65034;DHT22;51601;51.356;12.458;2023-04-15T23:57:20;9.70;99.90
